Floyd, VA (24091)

8:04 AM EDT on August 24, 2016 (GMT -0400)
APRSWXNET | | Change Station

Elev 2457 ft 36.91 °N, 80.32 °W | Updated 31 minutes ago

Clear
Clear
58 °F
Feels Like 58 °F
N
0
Wind Variable Wind from West
Gusts 1.0 mph

Today
High -- | Low -- °F
--% Chance of Precip.
Yesterday
High -- | Low -- °F
Precip. -- in
Pressure 30.40 in
Visibility 7.0 miles
Clouds Clear
Dew Point 56 °F
Humidity 94%
Rainfall in
Snow Depth Not available.
6:46 AM 8:00 PM
Waning Gibbous, 57% visible
METAR KBCB 241155Z AUTO 00000KT 7SM CLR 17/16 A3040 RMK AO2 T01650161 10167 20149 TSNO
Pressure 30.40 in
Visibility 7.0 miles
Clouds Clear
Dew Point 56 °F
Humidity 94%
Rainfall in
Snow Depth Not available.
6:46 AM 8:00 PM
Waning Gibbous, 57% visible
METAR KBCB 241155Z AUTO 00000KT 7SM CLR 17/16 A3040 RMK AO2 T01650161 10167 20149 TSNO

10-Day Weather Forecast

Almanac

Astronomy

Aug. 24, 2016 Rise Set
Actual Time
Civil Twilight
Nautical Twilight
Astronomical Twilight
Moon
Length of Visible Light
Length of Day
Tomorrow will be .
, % of the Moon is Illuminated

Today's Extremes

State Highs State Lows

Community

WunderPhotos

Upload Photos

1,934,572 photos uploaded!

WunderBlog® & News

Nearby

Air Quality

  Air Quality AQ Index Pollutant
Not available.

Snow Depth

Station Depth Elevation

Earthquake Activity

City Distance Mag. Time & Date
Minimum magnitude displayed is 2.5.

Coastal Water Temperatures

Place Temperature

Stations

Nearby Weather Stations

Station Location Temp. Windchill Dew Point Humidity Wind Precip. Elev Updated Type
                   

Watches & Warnings

There are currently no watches in effect.